This is the latest recevied weather packets stored in our database for station/object OH5GWF-1. If no packets are shown the sender has not sent any weather packets the latest 1 day(s).
| Time | Temp. | Humidity | Pressure | Rain* | Wind** | Luminosity | Snow |
|---|---|---|---|---|---|---|---|
| 1778082669 | 10° C | 32% | 1013 hPa | 0 mm | - | - | - |
| 1778078882 | 13.33° C | 28% | 1013.1 hPa | 0 mm | - | - | - |
| 1778077629 | 13.89° C | 28% | 1013.1 hPa | 0 mm | - | - | - |
| 1778072587 | 12.22° C | 31% | 1012.7 hPa | 0 mm | - | - | - |
| 1778071753 | 16.11° C | 27% | 1012.7 hPa | 0 mm | - | - | - |
| 1778071331 | 15.56° C | 29% | 1012.8 hPa | 0 mm | - | - | - |
| 1778069653 | 18.89° C | 27% | 1012.8 hPa | 0 mm | - | - | - |
| 1778069231 | 17.78° C | 28% | 1012.8 hPa | 0 mm | - | - | - |
| 1778068808 | 17.22° C | 27% | 1012.9 hPa | 0 mm | - | - | - |
| 1778067130 | 16.11° C | 28% | 1012.7 hPa | 0 mm | - | - | - |
| 1778066285 | 16.67° C | 25% | 1012.6 hPa | 0 mm | - | - | - |
| 1778065031 | 13.89° C | 31% | 1012.3 hPa | 0 mm | - | - | - |
| 1778063342 | 13.33° C | 33% | 1012.3 hPa | 0 mm | - | - | - |
| 1778062932 | 12.78° C | 35% | 1012.3 hPa | 0 mm | - | - | - |
| 1778062087 | 11.67° C | 35% | 1012.1 hPa | 0 mm | - | - | - |
| 1778061665 | 12.22° C | 37% | 1012.4 hPa | 0 mm | - | - | - |
| 1778061242 | 11.11° C | 40% | 1012.3 hPa | 0 mm | - | - | - |
| 1778060832 | 10° C | 38% | 1012.1 hPa | 0 mm | - | - | - |
| 1778059565 | 12.22° C | 38% | 1012.1 hPa | 0 mm | - | - | - |
| 1778058311 | 13.33° C | 38% | 1012 hPa | 0 mm | - | - | - |
| 1778057045 | 12.78° C | 41% | 1011.8 hPa | 0 mm | - | - | - |
| 1778055789 | 13.89° C | 35% | 1011.6 hPa | 0 mm | - | - | - |
| 1778051589 | 12.78° C | 43% | 1011.2 hPa | 0 mm | - | - | - |
| 1778051167 | 13.33° C | 46% | 1011.2 hPa | 0 mm | - | - | - |
| 1778050322 | 11.67° C | 51% | 1011 hPa | 0 mm | - | - | - |
* Rain latest hour (hover to see other rain measurements)
** Current wind speed in m/s (hover to see current wind gust speed)